createdAt,value
2022-10-10T00:01:19.504Z,100.00
2022-10-10T00:03:46.660Z,100.00
2022-10-10T00:06:14.203Z,100.00
2022-10-10T00:08:41.590Z,100.00
2022-10-10T00:11:08.960Z,100.00
2022-10-10T00:13:35.750Z,100.00
2022-10-10T00:16:02.925Z,100.00
2022-10-10T00:18:30.119Z,100.00
2022-10-10T00:20:56.715Z,100.00
2022-10-10T00:23:23.791Z,100.00
2022-10-10T00:25:51.090Z,100.00
2022-10-10T00:28:18.404Z,100.00
2022-10-10T00:30:44.918Z,100.00
2022-10-10T00:33:11.876Z,100.00
2022-10-10T00:35:38.663Z,100.00
2022-10-10T00:38:05.145Z,100.00
2022-10-10T00:40:31.945Z,100.00
2022-10-10T00:42:58.756Z,100.00
2022-10-10T00:45:43.052Z,100.00
2022-10-10T00:48:14.208Z,100.00
2022-10-10T00:50:52.248Z,100.00
2022-10-10T00:53:23.425Z,100.00
2022-10-10T00:55:50.549Z,100.00
2022-10-10T00:58:17.535Z,100.00
2022-10-10T01:00:44.094Z,100.00
2022-10-10T01:03:10.552Z,100.00
2022-10-10T01:05:37.736Z,100.00
2022-10-10T01:08:07.123Z,100.00
2022-10-10T01:10:44.735Z,100.00
2022-10-10T01:13:42.856Z,100.00
2022-10-10T01:16:35.569Z,100.00
2022-10-10T01:19:20.279Z,100.00
2022-10-10T01:21:55.808Z,100.00
2022-10-10T01:24:25.151Z,100.00
2022-10-10T01:27:08.785Z,100.00
2022-10-10T01:29:39.008Z,100.00
2022-10-10T01:32:14.619Z,100.00
2022-10-10T01:35:03.525Z,100.00
2022-10-10T01:37:50.915Z,100.00
2022-10-10T01:40:43.273Z,100.00
2022-10-10T01:43:11.438Z,100.00
2022-10-10T01:45:43.127Z,100.00
2022-10-10T01:48:09.683Z,100.00
2022-10-10T01:50:56.760Z,100.00
2022-10-10T01:53:47.562Z,100.00
2022-10-10T01:56:25.882Z,100.00
2022-10-10T01:59:10.773Z,100.00
2022-10-10T02:01:54.727Z,100.00
2022-10-10T02:04:27.146Z,100.00
2022-10-10T02:07:00.206Z,100.00
2022-10-10T02:09:40.659Z,100.00
2022-10-10T02:12:10.928Z,100.00
2022-10-10T02:14:46.010Z,100.00
2022-10-10T02:17:14.995Z,100.00
2022-10-10T02:19:47.680Z,100.00
2022-10-10T02:22:15.266Z,100.00
2022-10-10T02:24:42.528Z,100.00
2022-10-10T02:27:17.092Z,100.00
2022-10-10T02:29:45.420Z,100.00
2022-10-10T02:32:38.131Z,100.00
2022-10-10T02:35:11.896Z,100.00
2022-10-10T02:37:41.597Z,100.00
2022-10-10T02:40:10.523Z,100.00
2022-10-10T02:42:38.816Z,100.00
2022-10-10T02:45:06.052Z,100.00
2022-10-10T02:47:32.647Z,100.00
2022-10-10T02:49:59.184Z,100.00
2022-10-10T02:52:25.693Z,100.00
2022-10-10T02:54:52.129Z,100.00
2022-10-10T02:57:18.511Z,100.00
2022-10-10T02:59:44.923Z,100.00
2022-10-10T03:02:11.350Z,100.00
2022-10-10T03:04:37.876Z,100.00
2022-10-10T03:07:04.643Z,100.00
2022-10-10T03:09:31.144Z,100.00
2022-10-10T03:11:57.635Z,100.00
2022-10-10T03:14:24.204Z,100.00
2022-10-10T03:16:50.670Z,100.00
2022-10-10T03:19:17.160Z,100.00
2022-10-10T03:21:43.589Z,100.00
2022-10-10T03:24:10.216Z,100.00
2022-10-10T03:26:36.625Z,100.00
2022-10-10T03:29:03.697Z,100.00
2022-10-10T03:31:30.683Z,100.00
2022-10-10T03:33:57.085Z,100.00
2022-10-10T03:36:23.697Z,100.00
2022-10-10T03:38:50.297Z,100.00
2022-10-10T03:41:16.702Z,100.00
2022-10-10T03:43:43.151Z,100.00
2022-10-10T03:46:15.100Z,100.00
2022-10-10T03:48:42.630Z,100.00
2022-10-10T03:51:09.052Z,100.00
2022-10-10T03:53:35.528Z,100.00
2022-10-10T03:56:01.928Z,100.00
2022-10-10T03:58:28.507Z,100.00
2022-10-10T04:01:02.780Z,100.00
2022-10-10T04:03:29.547Z,100.00
2022-10-10T04:05:56.210Z,100.00
2022-10-10T04:08:23.022Z,100.00
2022-10-10T04:10:50.873Z,100.00
2022-10-10T04:13:17.615Z,100.00
2022-10-10T04:15:44.529Z,100.00
2022-10-10T04:18:11.517Z,100.00
2022-10-10T04:20:38.123Z,100.00
2022-10-10T04:23:04.552Z,100.00
2022-10-10T04:25:31.188Z,100.00
2022-10-10T04:28:01.029Z,100.00
2022-10-10T04:30:33.445Z,100.00
2022-10-10T04:33:00.185Z,100.00
2022-10-10T04:35:26.830Z,100.00
2022-10-10T04:37:53.540Z,100.00
2022-10-10T04:40:25.558Z,100.00
2022-10-10T04:42:54.161Z,100.00
2022-10-10T04:45:20.704Z,100.00
2022-10-10T04:47:47.134Z,100.00
2022-10-10T04:50:13.699Z,100.00
2022-10-10T04:52:40.128Z,100.00
2022-10-10T04:55:06.735Z,100.00
2022-10-10T04:57:33.173Z,100.00
2022-10-10T04:59:59.706Z,100.00
2022-10-10T05:02:26.138Z,100.00
2022-10-10T05:04:52.575Z,100.00
2022-10-10T05:07:18.981Z,100.00
2022-10-10T05:09:45.401Z,100.00
2022-10-10T05:12:11.864Z,100.00
2022-10-10T05:14:38.318Z,100.00
2022-10-10T05:17:04.738Z,100.00
2022-10-10T05:19:31.161Z,100.00
2022-10-10T05:21:57.564Z,100.00
2022-10-10T05:24:24.263Z,100.00
2022-10-10T05:26:50.701Z,100.00
2022-10-10T05:29:17.127Z,100.00
2022-10-10T05:31:43.539Z,100.00
2022-10-10T05:34:13.986Z,100.00
2022-10-10T05:36:41.904Z,100.00
2022-10-10T05:39:08.787Z,100.00
2022-10-10T05:41:35.983Z,100.00
2022-10-10T05:44:02.421Z,100.00
2022-10-10T05:46:28.830Z,100.00
2022-10-10T05:48:55.624Z,100.00
2022-10-10T05:51:22.235Z,100.00
2022-10-10T05:53:49.414Z,100.00
2022-10-10T05:56:17.097Z,100.00
2022-10-10T05:58:44.658Z,100.00
2022-10-10T06:01:11.238Z,100.00
2022-10-10T06:03:38.127Z,100.00
2022-10-10T06:06:05.074Z,100.00
2022-10-10T06:08:32.357Z,100.00
2022-10-10T06:11:04.657Z,100.00
2022-10-10T06:13:31.183Z,100.00
2022-10-10T06:15:58.070Z,100.00
2022-10-10T06:18:24.503Z,100.00
2022-10-10T06:20:50.929Z,100.00
2022-10-10T06:23:18.151Z,100.00
2022-10-10T06:25:44.647Z,100.00
2022-10-10T06:28:11.710Z,100.00
2022-10-10T06:30:43.258Z,100.00
2022-10-10T06:33:09.988Z,100.00
2022-10-10T06:35:43.408Z,100.00
2022-10-10T06:38:10.618Z,100.00
2022-10-10T06:40:37.245Z,100.00
2022-10-10T06:43:04.638Z,100.00
2022-10-10T06:45:39.438Z,100.00
2022-10-10T06:48:06.473Z,100.00
2022-10-10T06:50:32.921Z,100.00
2022-10-10T06:52:59.693Z,100.00
2022-10-10T06:55:26.285Z,100.00
2022-10-10T06:57:52.702Z,100.00
2022-10-10T07:00:19.814Z,100.00
2022-10-10T07:02:46.301Z,100.00
2022-10-10T07:05:16.347Z,100.00
2022-10-10T07:07:44.415Z,100.00
2022-10-10T07:10:13.754Z,100.00
2022-10-10T07:12:44.456Z,100.00
2022-10-10T07:15:11.806Z,100.00
2022-10-10T07:17:38.246Z,100.00
2022-10-10T07:20:05.227Z,100.00
2022-10-10T07:22:31.773Z,100.00
2022-10-10T07:24:58.252Z,100.00
2022-10-10T07:27:24.864Z,100.00
2022-10-10T07:29:51.273Z,100.00
2022-10-10T07:32:17.647Z,100.00
2022-10-10T07:34:44.042Z,100.00
2022-10-10T07:37:10.475Z,100.00
2022-10-10T07:39:36.878Z,100.00
2022-10-10T07:42:03.611Z,100.00
2022-10-10T07:44:34.297Z,100.00
2022-10-10T07:47:01.091Z,100.00
2022-10-10T07:49:27.680Z,100.00
2022-10-10T07:51:58.715Z,100.00
2022-10-10T07:54:27.120Z,100.00
2022-10-10T07:56:53.513Z,100.00
2022-10-10T07:59:19.967Z,100.00
2022-10-10T08:01:47.447Z,100.00
2022-10-10T08:04:13.968Z,100.00
2022-10-10T08:06:40.420Z,100.00
2022-10-10T08:09:06.856Z,100.00
2022-10-10T08:11:33.275Z,100.00
2022-10-10T08:13:59.730Z,100.00
2022-10-10T08:16:26.206Z,100.00
2022-10-10T08:18:52.702Z,100.00
2022-10-10T08:21:19.258Z,100.00
2022-10-10T08:23:45.818Z,100.00
2022-10-10T08:26:15.317Z,100.00
2022-10-10T08:28:42.032Z,100.00
2022-10-10T08:31:13.813Z,100.00
2022-10-10T08:33:42.037Z,100.00
2022-10-10T08:36:17.735Z,100.00
2022-10-10T08:38:44.791Z,100.00
2022-10-10T08:41:24.360Z,100.00
2022-10-10T08:44:05.698Z,100.00
2022-10-10T08:46:39.519Z,100.00
2022-10-10T08:49:25.377Z,100.00
2022-10-10T08:52:00.109Z,100.00
2022-10-10T08:54:28.460Z,100.00
2022-10-10T08:56:59.571Z,100.00
2022-10-10T08:59:32.001Z,100.00
2022-10-10T09:02:21.570Z,100.00
2022-10-10T09:04:50.050Z,100.00
2022-10-10T09:07:38.451Z,100.00
2022-10-10T09:10:29.438Z,100.00
2022-10-10T09:13:12.805Z,100.00
2022-10-10T09:15:55.143Z,100.00
2022-10-10T09:18:42.881Z,100.00
2022-10-10T09:21:18.655Z,100.00
2022-10-10T09:24:11.671Z,100.00
2022-10-10T09:26:50.744Z,100.00
2022-10-10T09:29:51.823Z,100.00
2022-10-10T09:32:19.988Z,100.00
2022-10-10T09:34:52.003Z,100.00
2022-10-10T09:37:42.590Z,100.00
2022-10-10T09:40:33.644Z,100.00
2022-10-10T09:43:13.763Z,100.00
2022-10-10T09:45:48.911Z,100.00
2022-10-10T09:48:15.312Z,100.00
2022-10-10T09:50:43.840Z,100.00
2022-10-10T09:53:16.207Z,100.00
2022-10-10T09:55:44.859Z,100.00
2022-10-10T09:58:16.843Z,100.00
2022-10-10T10:00:43.325Z,100.00
2022-10-10T10:03:18.836Z,100.00
2022-10-10T10:06:00.669Z,100.00
2022-10-10T10:08:30.213Z,100.00
2022-10-10T10:10:58.475Z,100.00
2022-10-10T10:13:31.684Z,100.00
2022-10-10T10:16:06.680Z,100.00
2022-10-10T10:18:44.515Z,100.00
2022-10-10T10:21:12.823Z,100.00
2022-10-10T10:23:57.759Z,100.00
2022-10-10T10:26:33.204Z,100.00
2022-10-10T10:28:59.722Z,100.00
2022-10-10T10:31:52.947Z,100.00
2022-10-10T10:34:30.969Z,100.00
2022-10-10T10:37:15.400Z,100.00
2022-10-10T10:40:07.101Z,100.00
2022-10-10T10:43:00.829Z,100.00
2022-10-10T10:45:55.254Z,100.00
2022-10-10T10:48:34.848Z,100.00
2022-10-10T10:51:23.221Z,100.00
2022-10-10T10:53:59.471Z,100.00
2022-10-10T10:56:46.783Z,100.00
2022-10-10T10:59:41.792Z,100.00
2022-10-10T11:02:09.019Z,100.00
2022-10-10T11:05:18.282Z,100.00
2022-10-10T11:07:57.555Z,100.00
2022-10-10T11:10:56.879Z,100.00
2022-10-10T11:13:28.233Z,100.00
2022-10-10T11:16:10.021Z,100.00
2022-10-10T11:19:29.185Z,100.00
2022-10-10T11:22:09.849Z,100.00
2022-10-10T11:24:56.467Z,100.00
2022-10-10T11:27:36.310Z,100.00
2022-10-10T11:30:10.313Z,100.00
2022-10-10T11:32:55.514Z,100.00
2022-10-10T11:35:33.325Z,100.00
2022-10-10T11:38:23.012Z,100.00
2022-10-10T11:40:52.521Z,100.00
2022-10-10T11:43:34.031Z,100.00
2022-10-10T11:46:11.480Z,100.00
2022-10-10T11:49:04.061Z,100.00
2022-10-10T11:52:14.932Z,100.00
2022-10-10T11:54:51.208Z,100.00
2022-10-10T11:57:27.653Z,100.00
2022-10-10T12:00:01.988Z,100.00
2022-10-10T12:02:36.106Z,100.00
2022-10-10T12:05:06.081Z,100.00
2022-10-10T12:07:56.929Z,100.00
2022-10-10T12:10:25.212Z,100.00
2022-10-10T12:12:57.165Z,100.00
2022-10-10T12:15:30.397Z,100.00
2022-10-10T12:17:57.384Z,100.00
2022-10-10T12:20:26.761Z,100.00
2022-10-10T12:23:14.991Z,100.00
2022-10-10T12:25:45.650Z,100.00
2022-10-10T12:28:15.183Z,100.00
2022-10-10T12:30:58.445Z,100.00
2022-10-10T12:33:31.367Z,100.00
2022-10-10T12:36:18.015Z,100.00
2022-10-10T12:39:06.491Z,100.00
2022-10-10T12:41:56.954Z,100.00
2022-10-10T12:44:35.626Z,100.00
2022-10-10T12:47:46.201Z,100.00
2022-10-10T12:50:23.107Z,100.00
2022-10-10T12:52:51.312Z,100.00
2022-10-10T12:55:26.008Z,100.00
2022-10-10T12:57:58.827Z,100.00
2022-10-10T13:00:28.012Z,100.00
2022-10-10T13:02:57.447Z,100.00
2022-10-10T13:05:35.035Z,100.00
2022-10-10T13:08:08.283Z,100.00
2022-10-10T13:10:34.738Z,97.07
2022-10-10T13:13:05.957Z,95.22
2022-10-10T13:15:34.435Z,97.76
2022-10-10T13:18:01.114Z,97.00
2022-10-10T13:20:29.866Z,99.71
2022-10-10T13:22:56.833Z,100.00
2022-10-10T13:25:24.085Z,100.00
2022-10-10T13:27:50.832Z,100.00
2022-10-10T13:30:23.613Z,100.00
2022-10-10T13:32:52.880Z,100.00
2022-10-10T13:35:30.103Z,100.00
2022-10-10T13:37:59.506Z,100.00
2022-10-10T13:40:27.105Z,100.00
2022-10-10T13:42:55.106Z,98.91
2022-10-10T13:45:32.448Z,97.47
2022-10-10T13:48:01.898Z,96.55
2022-10-10T13:50:34.529Z,97.01
2022-10-10T13:53:29.137Z,95.70
2022-10-10T13:56:10.784Z,93.68
2022-10-10T13:58:51.087Z,94.70
2022-10-10T14:01:23.275Z,96.55
2022-10-10T14:03:51.816Z,95.83
2022-10-10T14:06:26.317Z,96.81
2022-10-10T14:08:56.398Z,96.68
2022-10-10T14:11:26.920Z,96.07
2022-10-10T14:14:02.609Z,97.79
2022-10-10T14:16:29.081Z,98.61
2022-10-10T14:18:55.519Z,99.54
2022-10-10T14:21:21.931Z,99.73
2022-10-10T14:23:48.368Z,98.72
2022-10-10T14:26:18.615Z,100.00
2022-10-10T14:28:45.769Z,97.70
2022-10-10T14:31:13.265Z,98.97
2022-10-10T14:33:39.847Z,97.35
2022-10-10T14:36:06.780Z,99.83
2022-10-10T14:38:33.626Z,100.00
2022-10-10T14:41:01.223Z,95.98
2022-10-10T14:43:28.022Z,94.90
2022-10-10T14:45:55.134Z,93.73
2022-10-10T14:48:21.613Z,93.73
2022-10-10T14:50:48.810Z,93.44
2022-10-10T14:53:15.907Z,92.98
2022-10-10T14:55:43.667Z,93.28
2022-10-10T14:58:19.405Z,91.87
2022-10-10T15:00:49.640Z,91.66
2022-10-10T15:03:16.207Z,93.02
2022-10-10T15:05:42.755Z,93.97
2022-10-10T15:08:14.928Z,93.02
2022-10-10T15:10:42.871Z,93.45
2022-10-10T15:13:13.808Z,93.77
2022-10-10T15:15:41.032Z,95.07
2022-10-10T15:18:25.722Z,97.11
2022-10-10T15:20:54.654Z,98.05
2022-10-10T15:23:21.630Z,100.00
2022-10-10T15:25:48.037Z,100.00
2022-10-10T15:28:14.587Z,100.00
2022-10-10T15:30:45.206Z,100.00
2022-10-10T15:33:11.650Z,100.00
2022-10-10T15:36:03.855Z,100.00
2022-10-10T15:38:24.819Z,100.00
2022-10-10T15:41:04.187Z,100.00
2022-10-10T15:43:31.398Z,100.00
2022-10-10T15:46:00.671Z,100.00
2022-10-10T15:48:27.662Z,100.00
2022-10-10T15:50:54.042Z,100.00
2022-10-10T15:53:20.615Z,100.00
2022-10-10T15:55:47.958Z,100.00
2022-10-10T15:58:15.367Z,100.00
2022-10-10T16:00:43.627Z,100.00
2022-10-10T16:03:10.081Z,100.00
2022-10-10T16:05:38.443Z,100.00
2022-10-10T16:08:05.447Z,100.00
2022-10-10T16:10:40.453Z,100.00
2022-10-10T16:13:07.749Z,100.00
2022-10-10T16:15:34.473Z,100.00
2022-10-10T16:18:01.255Z,100.00
2022-10-10T16:20:28.532Z,100.00
2022-10-10T16:22:55.272Z,100.00
2022-10-10T16:25:22.941Z,100.00
2022-10-10T16:27:49.920Z,100.00
2022-10-10T16:30:16.629Z,100.00
2022-10-10T16:32:43.120Z,100.00
2022-10-10T16:35:10.974Z,100.00
2022-10-10T16:37:38.478Z,100.00
2022-10-10T16:40:06.048Z,100.00
2022-10-10T16:42:32.494Z,100.00
2022-10-10T16:44:58.887Z,100.00
2022-10-10T16:47:25.287Z,100.00
2022-10-10T16:49:51.730Z,100.00
2022-10-10T16:52:18.595Z,100.00
2022-10-10T16:54:47.764Z,100.00
2022-10-10T16:57:17.939Z,100.00
2022-10-10T16:59:44.355Z,100.00
2022-10-10T17:02:11.967Z,100.00
2022-10-10T17:04:38.376Z,100.00
2022-10-10T17:07:04.812Z,100.00
2022-10-10T17:09:31.272Z,100.00
2022-10-10T17:11:57.711Z,100.00
2022-10-10T17:14:24.158Z,100.00
2022-10-10T17:17:11.094Z,100.00
2022-10-10T17:19:37.123Z,100.00
2022-10-10T17:22:03.626Z,100.00
2022-10-10T17:24:30.078Z,100.00
2022-10-10T17:26:56.559Z,100.00
2022-10-10T17:29:23.658Z,100.00
2022-10-10T17:31:50.425Z,100.00
2022-10-10T17:34:16.876Z,100.00
2022-10-10T17:36:43.325Z,100.00
2022-10-10T17:39:09.788Z,100.00
2022-10-10T17:41:36.590Z,100.00
2022-10-10T17:44:04.478Z,100.00
2022-10-10T17:46:35.432Z,100.00
2022-10-10T17:49:05.165Z,100.00
2022-10-10T17:51:32.190Z,100.00
2022-10-10T17:53:59.862Z,100.00
2022-10-10T17:56:26.687Z,100.00
2022-10-10T17:58:53.203Z,100.00
2022-10-10T18:01:20.230Z,100.00
2022-10-10T18:03:48.504Z,100.00
2022-10-10T18:06:17.995Z,100.00
2022-10-10T18:08:47.126Z,100.00
2022-10-10T18:11:19.231Z,100.00
2022-10-10T18:13:46.396Z,100.00
2022-10-10T18:16:15.476Z,100.00
2022-10-10T18:18:48.221Z,100.00
2022-10-10T18:21:17.872Z,100.00
2022-10-10T18:23:44.394Z,100.00
2022-10-10T18:26:25.470Z,100.00
2022-10-10T18:28:52.630Z,100.00
2022-10-10T18:31:24.377Z,100.00
2022-10-10T18:33:50.892Z,100.00
2022-10-10T18:36:20.109Z,100.00
2022-10-10T18:38:47.042Z,100.00
2022-10-10T18:41:19.720Z,100.00
2022-10-10T18:43:46.927Z,100.00
2022-10-10T18:46:16.063Z,100.00
2022-10-10T18:48:43.989Z,100.00
2022-10-10T18:51:16.148Z,100.00
2022-10-10T18:53:44.915Z,100.00
2022-10-10T18:56:13.342Z,100.00
2022-10-10T18:58:40.766Z,100.00
2022-10-10T19:01:09.992Z,100.00
2022-10-10T19:03:37.757Z,100.00
2022-10-10T19:06:06.802Z,100.00
2022-10-10T19:08:34.374Z,100.00
2022-10-10T19:11:01.577Z,100.00
2022-10-10T19:13:28.400Z,100.00
2022-10-10T19:15:55.315Z,100.00
2022-10-10T19:18:23.000Z,100.00
2022-10-10T19:20:49.703Z,100.00
2022-10-10T19:23:16.229Z,100.00
2022-10-10T19:25:44.408Z,100.00
2022-10-10T19:28:11.021Z,100.00
2022-10-10T19:30:42.348Z,100.00
2022-10-10T19:33:09.876Z,100.00
2022-10-10T19:35:42.170Z,100.00
2022-10-10T19:38:10.091Z,100.00
2022-10-10T19:40:43.717Z,100.00
2022-10-10T19:43:10.152Z,100.00
2022-10-10T19:45:48.491Z,100.00
2022-10-10T19:48:15.775Z,100.00
2022-10-10T19:50:43.852Z,100.00
2022-10-10T19:53:14.568Z,100.00
2022-10-10T19:55:41.574Z,100.00
2022-10-10T19:58:08.027Z,100.00
2022-10-10T20:00:36.557Z,100.00
2022-10-10T20:03:03.072Z,100.00
2022-10-10T20:05:29.453Z,100.00
2022-10-10T20:07:55.906Z,100.00
2022-10-10T20:10:22.364Z,100.00
2022-10-10T20:12:49.217Z,100.00
2022-10-10T20:15:15.825Z,100.00
2022-10-10T20:17:42.304Z,100.00
2022-10-10T20:20:09.096Z,100.00
2022-10-10T20:22:35.596Z,100.00
2022-10-10T20:25:02.089Z,100.00
2022-10-10T20:27:31.176Z,100.00
2022-10-10T20:29:58.217Z,100.00
2022-10-10T20:32:24.904Z,100.00
2022-10-10T20:34:51.392Z,100.00
2022-10-10T20:37:17.790Z,100.00
2022-10-10T20:39:44.414Z,100.00
2022-10-10T20:42:10.853Z,100.00
2022-10-10T20:44:39.344Z,100.00
2022-10-10T20:47:06.789Z,100.00
2022-10-10T20:49:33.267Z,100.00
2022-10-10T20:51:59.711Z,100.00
2022-10-10T20:54:26.169Z,100.00
2022-10-10T20:56:52.641Z,100.00
2022-10-10T20:59:20.794Z,100.00
2022-10-10T21:01:47.299Z,100.00
2022-10-10T21:04:14.188Z,100.00
2022-10-10T21:06:42.693Z,100.00
2022-10-10T21:09:11.058Z,100.00
2022-10-10T21:11:39.111Z,100.00
2022-10-10T21:14:05.856Z,100.00
2022-10-10T21:16:35.401Z,100.00
2022-10-10T21:19:02.425Z,100.00
2022-10-10T21:21:34.748Z,100.00
2022-10-10T21:24:03.661Z,100.00
2022-10-10T21:26:31.156Z,100.00
2022-10-10T21:28:58.324Z,100.00
2022-10-10T21:31:29.239Z,100.00
2022-10-10T21:33:56.648Z,100.00
2022-10-10T21:36:25.656Z,100.00
2022-10-10T21:38:52.984Z,100.00
2022-10-10T21:41:20.338Z,100.00
2022-10-10T21:43:51.378Z,100.00
2022-10-10T21:46:20.069Z,100.00
2022-10-10T21:48:46.457Z,100.00
2022-10-10T21:51:15.547Z,100.00
2022-10-10T21:53:43.262Z,100.00
2022-10-10T21:56:11.379Z,100.00
2022-10-10T21:58:40.808Z,100.00
2022-10-10T22:01:19.189Z,100.00
2022-10-10T22:03:48.035Z,100.00
2022-10-10T22:06:16.928Z,100.00
2022-10-10T22:08:44.067Z,100.00
2022-10-10T22:11:19.697Z,100.00
2022-10-10T22:13:47.087Z,100.00
2022-10-10T22:16:13.981Z,100.00
2022-10-10T22:18:41.019Z,100.00
2022-10-10T22:21:10.977Z,100.00
2022-10-10T22:23:37.461Z,100.00
2022-10-10T22:26:08.395Z,100.00
2022-10-10T22:28:34.952Z,100.00
2022-10-10T22:31:06.048Z,100.00
2022-10-10T22:33:32.564Z,100.00
2022-10-10T22:35:58.982Z,100.00
2022-10-10T22:38:26.180Z,100.00
2022-10-10T22:40:52.975Z,100.00
2022-10-10T22:43:19.446Z,100.00
2022-10-10T22:45:46.029Z,100.00
2022-10-10T22:48:12.454Z,100.00
2022-10-10T22:50:38.970Z,100.00
2022-10-10T22:53:06.154Z,100.00
2022-10-10T22:55:33.582Z,100.00
2022-10-10T22:58:00.090Z,100.00
2022-10-10T23:00:26.627Z,100.00
2022-10-10T23:02:57.055Z,100.00
2022-10-10T23:05:23.898Z,100.00
2022-10-10T23:07:50.389Z,100.00
2022-10-10T23:10:16.888Z,100.00
2022-10-10T23:12:43.401Z,100.00
2022-10-10T23:15:10.227Z,100.00
2022-10-10T23:17:36.940Z,100.00
2022-10-10T23:20:04.136Z,100.00
2022-10-10T23:22:30.563Z,100.00
2022-10-10T23:24:56.971Z,100.00
2022-10-10T23:27:23.447Z,100.00
2022-10-10T23:29:49.853Z,100.00
2022-10-10T23:32:16.263Z,100.00
2022-10-10T23:34:42.695Z,100.00
2022-10-10T23:37:09.151Z,100.00
2022-10-10T23:39:35.716Z,100.00
2022-10-10T23:42:02.172Z,100.00
2022-10-10T23:44:28.838Z,100.00
2022-10-10T23:46:55.303Z,100.00
2022-10-10T23:49:21.712Z,100.00
2022-10-10T23:51:48.139Z,100.00
2022-10-10T23:54:14.581Z,100.00
2022-10-10T23:56:41.169Z,100.00
2022-10-10T23:59:07.776Z,100.00
